sensor_id;sensor_type;location;lat;lon;timestamp;P1;durP1;ratioP1;P2;durP2;ratioP2
9884;SDS011;4981;50.966;4.842;2023-06-14T02:09:56;10.02;;;5.78;;
9884;SDS011;4981;50.966;4.842;2023-06-14T02:12:23;6.82;;;5.32;;
9884;SDS011;4981;50.966;4.842;2023-06-14T02:14:50;8.55;;;5.78;;
9884;SDS011;4981;50.966;4.842;2023-06-14T02:17:17;9.40;;;5.97;;
9884;SDS011;4981;50.966;4.842;2023-06-14T02:19:43;8.02;;;5.53;;
9884;SDS011;4981;50.966;4.842;2023-06-14T02:22:10;7.25;;;6.10;;
9884;SDS011;4981;50.966;4.842;2023-06-14T02:24:40;6.22;;;5.57;;
9884;SDS011;4981;50.966;4.842;2023-06-14T02:27:08;9.68;;;6.07;;
9884;SDS011;4981;50.966;4.842;2023-06-14T02:29:36;7.63;;;5.93;;
9884;SDS011;4981;50.966;4.842;2023-06-14T02:32:03;10.30;;;6.10;;
9884;SDS011;4981;50.966;4.842;2023-06-14T02:34:32;7.07;;;6.38;;
9884;SDS011;4981;50.966;4.842;2023-06-14T02:36:59;7.72;;;5.60;;
9884;SDS011;4981;50.966;4.842;2023-06-14T02:39:28;11.32;;;6.10;;
9884;SDS011;4981;50.966;4.842;2023-06-14T02:41:55;6.95;;;6.25;;
9884;SDS011;4981;50.966;4.842;2023-06-14T02:44:25;8.05;;;5.50;;
9884;SDS011;4981;50.966;4.842;2023-06-14T02:46:53;9.00;;;5.95;;
9884;SDS011;4981;50.966;4.842;2023-06-14T02:49:20;7.22;;;5.85;;
9884;SDS011;4981;50.966;4.842;2023-06-14T02:51:47;7.55;;;5.95;;
9884;SDS011;4981;50.966;4.842;2023-06-14T02:54:14;10.57;;;6.63;;
9884;SDS011;4981;50.966;4.842;2023-06-14T02:56:41;13.63;;;6.80;;
9884;SDS011;4981;50.966;4.842;2023-06-14T02:59:08;8.57;;;6.85;;
9884;SDS011;4981;50.966;4.842;2023-06-14T03:01:37;7.05;;;6.28;;
9884;SDS011;4981;50.966;4.842;2023-06-14T03:04:06;10.50;;;6.40;;
9884;SDS011;4981;50.966;4.842;2023-06-14T03:06:33;7.50;;;6.57;;
9884;SDS011;4981;50.966;4.842;2023-06-14T03:09:00;7.28;;;6.28;;
9884;SDS011;4981;50.966;4.842;2023-06-14T03:11:29;9.43;;;6.22;;
9884;SDS011;4981;50.966;4.842;2023-06-14T03:13:56;12.70;;;6.30;;
9884;SDS011;4981;50.966;4.842;2023-06-14T03:16:24;6.85;;;6.13;;
9884;SDS011;4981;50.966;4.842;2023-06-14T03:18:56;7.93;;;5.95;;
9884;SDS011;4981;50.966;4.842;2023-06-14T03:21:23;6.43;;;5.90;;
9884;SDS011;4981;50.966;4.842;2023-06-14T03:23:51;6.25;;;5.65;;
9884;SDS011;4981;50.966;4.842;2023-06-14T03:26:18;10.30;;;6.57;;
9884;SDS011;4981;50.966;4.842;2023-06-14T03:28:45;7.65;;;6.68;;
9884;SDS011;4981;50.966;4.842;2023-06-14T03:31:13;9.73;;;6.68;;
9884;SDS011;4981;50.966;4.842;2023-06-14T03:33:41;6.80;;;6.10;;
9884;SDS011;4981;50.966;4.842;2023-06-14T03:36:11;6.63;;;6.00;;
9884;SDS011;4981;50.966;4.842;2023-06-14T03:38:38;9.23;;;6.32;;
9884;SDS011;4981;50.966;4.842;2023-06-14T03:41:05;11.23;;;6.15;;
9884;SDS011;4981;50.966;4.842;2023-06-14T03:43:33;9.00;;;5.70;;
9884;SDS011;4981;50.966;4.842;2023-06-14T03:46:00;16.77;;;5.90;;
9884;SDS011;4981;50.966;4.842;2023-06-14T03:48:27;8.55;;;6.15;;
9884;SDS011;4981;50.966;4.842;2023-06-14T03:50:54;9.23;;;6.40;;
9884;SDS011;4981;50.966;4.842;2023-06-14T03:53:22;8.57;;;6.07;;
9884;SDS011;4981;50.966;4.842;2023-06-14T03:55:49;11.45;;;6.40;;
9884;SDS011;4981;50.966;4.842;2023-06-14T03:58:17;9.13;;;6.50;;
9884;SDS011;4981;50.966;4.842;2023-06-14T04:00:44;9.27;;;6.60;;
9884;SDS011;4981;50.966;4.842;2023-06-14T04:03:13;6.78;;;6.07;;
9884;SDS011;4981;50.966;4.842;2023-06-14T04:05:41;6.78;;;6.07;;
9884;SDS011;4981;50.966;4.842;2023-06-14T04:08:09;9.32;;;6.18;;
9884;SDS011;4981;50.966;4.842;2023-06-14T04:10:41;8.10;;;6.35;;
9884;SDS011;4981;50.966;4.842;2023-06-14T04:13:08;9.38;;;6.65;;
9884;SDS011;4981;50.966;4.842;2023-06-14T04:15:38;10.32;;;5.90;;
9884;SDS011;4981;50.966;4.842;2023-06-14T04:18:07;8.35;;;5.90;;
9884;SDS011;4981;50.966;4.842;2023-06-14T04:20:34;8.23;;;5.88;;
9884;SDS011;4981;50.966;4.842;2023-06-14T04:23:10;8.80;;;6.35;;
9884;SDS011;4981;50.966;4.842;2023-06-14T04:25:38;12.77;;;5.80;;
9884;SDS011;4981;50.966;4.842;2023-06-14T04:28:11;8.32;;;6.35;;
9884;SDS011;4981;50.966;4.842;2023-06-14T04:30:40;9.65;;;5.97;;
9884;SDS011;4981;50.966;4.842;2023-06-14T04:33:08;8.18;;;6.15;;
9884;SDS011;4981;50.966;4.842;2023-06-14T04:35:35;8.55;;;5.85;;
9884;SDS011;4981;50.966;4.842;2023-06-14T04:38:04;7.60;;;5.65;;
9884;SDS011;4981;50.966;4.842;2023-06-14T04:40:34;7.20;;;6.50;;
9884;SDS011;4981;50.966;4.842;2023-06-14T04:43:07;12.13;;;5.90;;
9884;SDS011;4981;50.966;4.842;2023-06-14T04:45:39;9.23;;;6.25;;
9884;SDS011;4981;50.966;4.842;2023-06-14T04:48:10;9.18;;;6.15;;
9884;SDS011;4981;50.966;4.842;2023-06-14T04:50:37;9.57;;;6.47;;
9884;SDS011;4981;50.966;4.842;2023-06-14T04:53:08;8.85;;;5.90;;
9884;SDS011;4981;50.966;4.842;2023-06-14T04:55:36;11.85;;;6.47;;
9884;SDS011;4981;50.966;4.842;2023-06-14T04:58:03;8.95;;;6.65;;
9884;SDS011;4981;50.966;4.842;2023-06-14T05:00:33;6.55;;;5.95;;
9884;SDS011;4981;50.966;4.842;2023-06-14T05:03:01;10.30;;;6.38;;
9884;SDS011;4981;50.966;4.842;2023-06-14T05:05:31;6.75;;;5.93;;
9884;SDS011;4981;50.966;4.842;2023-06-14T05:07:58;11.57;;;6.40;;
9884;SDS011;4981;50.966;4.842;2023-06-14T05:10:25;10.77;;;6.40;;
9884;SDS011;4981;50.966;4.842;2023-06-14T05:12:52;9.23;;;6.55;;
9884;SDS011;4981;50.966;4.842;2023-06-14T05:15:21;11.40;;;6.25;;
9884;SDS011;4981;50.966;4.842;2023-06-14T05:17:50;11.15;;;6.80;;
9884;SDS011;4981;50.966;4.842;2023-06-14T05:20:21;8.48;;;6.72;;
9884;SDS011;4981;50.966;4.842;2023-06-14T05:22:50;13.60;;;6.85;;
9884;SDS011;4981;50.966;4.842;2023-06-14T05:25:18;17.15;;;7.10;;
9884;SDS011;4981;50.966;4.842;2023-06-14T05:27:45;12.23;;;7.03;;
9884;SDS011;4981;50.966;4.842;2023-06-14T05:30:12;13.32;;;6.78;;
9884;SDS011;4981;50.966;4.842;2023-06-14T05:32:40;8.73;;;6.63;;
9884;SDS011;4981;50.966;4.842;2023-06-14T05:35:08;13.70;;;6.82;;
9884;SDS011;4981;50.966;4.842;2023-06-14T05:37:37;11.18;;;6.40;;
9884;SDS011;4981;50.966;4.842;2023-06-14T05:40:04;10.13;;;6.63;;
9884;SDS011;4981;50.966;4.842;2023-06-14T05:42:34;7.30;;;6.40;;
9884;SDS011;4981;50.966;4.842;2023-06-14T05:45:01;10.82;;;5.20;;
9884;SDS011;4981;50.966;4.842;2023-06-14T05:47:28;10.50;;;6.85;;
9884;SDS011;4981;50.966;4.842;2023-06-14T05:49:55;12.20;;;7.10;;
9884;SDS011;4981;50.966;4.842;2023-06-14T05:52:22;11.15;;;6.85;;
9884;SDS011;4981;50.966;4.842;2023-06-14T05:54:50;9.18;;;6.55;;
9884;SDS011;4981;50.966;4.842;2023-06-14T05:57:17;6.53;;;5.30;;
9884;SDS011;4981;50.966;4.842;2023-06-14T05:59:44;5.75;;;5.00;;
9884;SDS011;4981;50.966;4.842;2023-06-14T06:02:11;6.30;;;5.07;;
9884;SDS011;4981;50.966;4.842;2023-06-14T06:04:38;10.52;;;5.65;;
9884;SDS011;4981;50.966;4.842;2023-06-14T06:07:05;5.07;;;4.57;;
9884;SDS011;4981;50.966;4.842;2023-06-14T06:09:32;7.03;;;4.72;;
9884;SDS011;4981;50.966;4.842;2023-06-14T06:12:00;5.30;;;4.78;;
9884;SDS011;4981;50.966;4.842;2023-06-14T06:14:27;5.30;;;4.30;;
9884;SDS011;4981;50.966;4.842;2023-06-14T06:16:57;7.07;;;4.28;;
9884;SDS011;4981;50.966;4.842;2023-06-14T06:19:24;5.00;;;4.50;;
9884;SDS011;4981;50.966;4.842;2023-06-14T06:21:51;8.73;;;4.60;;
9884;SDS011;4981;50.966;4.842;2023-06-14T06:24:18;8.50;;;5.10;;
9884;SDS011;4981;50.966;4.842;2023-06-14T06:26:45;10.10;;;6.57;;
9884;SDS011;4981;50.966;4.842;2023-06-14T06:29:14;12.07;;;6.38;;
9884;SDS011;4981;50.966;4.842;2023-06-14T06:31:41;11.07;;;6.43;;
9884;SDS011;4981;50.966;4.842;2023-06-14T06:34:08;6.07;;;4.45;;
9884;SDS011;4981;50.966;4.842;2023-06-14T06:36:35;5.07;;;4.35;;
9884;SDS011;4981;50.966;4.842;2023-06-14T06:39:02;12.98;;;6.25;;
9884;SDS011;4981;50.966;4.842;2023-06-14T06:41:34;7.03;;;4.30;;
9884;SDS011;4981;50.966;4.842;2023-06-14T06:44:02;7.80;;;6.00;;
9884;SDS011;4981;50.966;4.842;2023-06-14T06:46:31;8.25;;;6.22;;
9884;SDS011;4981;50.966;4.842;2023-06-14T06:48:58;7.32;;;5.32;;
9884;SDS011;4981;50.966;4.842;2023-06-14T06:51:26;5.93;;;4.57;;
9884;SDS011;4981;50.966;4.842;2023-06-14T06:53:53;9.70;;;5.55;;
9884;SDS011;4981;50.966;4.842;2023-06-14T06:56:20;12.02;;;6.38;;
9884;SDS011;4981;50.966;4.842;2023-06-14T06:58:48;5.00;;;4.07;;
9884;SDS011;4981;50.966;4.842;2023-06-14T07:01:16;9.90;;;5.60;;
9884;SDS011;4981;50.966;4.842;2023-06-14T07:03:45;8.35;;;4.63;;
9884;SDS011;4981;50.966;4.842;2023-06-14T07:06:12;7.63;;;5.50;;
9884;SDS011;4981;50.966;4.842;2023-06-14T07:08:39;5.38;;;4.88;;
9884;SDS011;4981;50.966;4.842;2023-06-14T07:11:06;16.45;;;5.97;;
9884;SDS011;4981;50.966;4.842;2023-06-14T07:13:33;12.70;;;6.10;;
9884;SDS011;4981;50.966;4.842;2023-06-14T07:16:00;4.57;;;4.15;;
9884;SDS011;4981;50.966;4.842;2023-06-14T07:18:27;6.25;;;4.22;;
9884;SDS011;4981;50.966;4.842;2023-06-14T07:20:56;10.00;;;5.40;;
9884;SDS011;4981;50.966;4.842;2023-06-14T07:23:23;9.55;;;5.55;;
9884;SDS011;4981;50.966;4.842;2023-06-14T07:25:50;10.07;;;5.70;;
9884;SDS011;4981;50.966;4.842;2023-06-14T07:28:17;8.68;;;5.30;;
9884;SDS011;4981;50.966;4.842;2023-06-14T07:30:44;5.75;;;4.15;;
9884;SDS011;4981;50.966;4.842;2023-06-14T07:33:11;10.88;;;5.45;;
9884;SDS011;4981;50.966;4.842;2023-06-14T07:35:38;4.47;;;3.83;;
9884;SDS011;4981;50.966;4.842;2023-06-14T07:38:07;10.05;;;6.22;;
9884;SDS011;4981;50.966;4.842;2023-06-14T07:40:34;4.80;;;4.30;;
9884;SDS011;4981;50.966;4.842;2023-06-14T07:43:01;6.82;;;5.05;;
9884;SDS011;4981;50.966;4.842;2023-06-14T07:45:28;6.50;;;4.53;;
9884;SDS011;4981;50.966;4.842;2023-06-14T07:47:55;5.45;;;4.20;;
9884;SDS011;4981;50.966;4.842;2023-06-14T07:50:22;9.00;;;5.03;;
9884;SDS011;4981;50.966;4.842;2023-06-14T07:52:50;5.82;;;4.32;;
9884;SDS011;4981;50.966;4.842;2023-06-14T07:55:18;10.52;;;5.80;;
9884;SDS011;4981;50.966;4.842;2023-06-14T07:57:45;10.63;;;6.18;;
9884;SDS011;4981;50.966;4.842;2023-06-14T08:00:12;6.45;;;4.75;;
9884;SDS011;4981;50.966;4.842;2023-06-14T08:02:40;5.53;;;3.92;;
9884;SDS011;4981;50.966;4.842;2023-06-14T08:05:08;21.58;;;5.97;;
9884;SDS011;4981;50.966;4.842;2023-06-14T08:07:36;14.02;;;6.10;;
9884;SDS011;4981;50.966;4.842;2023-06-14T08:10:04;4.88;;;4.38;;
9884;SDS011;4981;50.966;4.842;2023-06-14T08:12:33;5.78;;;4.10;;
9884;SDS011;4981;50.966;4.842;2023-06-14T08:15:00;6.18;;;4.68;;
9884;SDS011;4981;50.966;4.842;2023-06-14T08:17:27;5.82;;;3.60;;
9884;SDS011;4981;50.966;4.842;2023-06-14T08:19:54;5.63;;;4.32;;
9884;SDS011;4981;50.966;4.842;2023-06-14T08:22:22;4.93;;;4.00;;
9884;SDS011;4981;50.966;4.842;2023-06-14T08:24:51;4.50;;;3.92;;
9884;SDS011;4981;50.966;4.842;2023-06-14T08:27:19;5.43;;;4.05;;
9884;SDS011;4981;50.966;4.842;2023-06-14T08:29:48;6.97;;;4.22;;
9884;SDS011;4981;50.966;4.842;2023-06-14T08:32:16;5.10;;;4.40;;
9884;SDS011;4981;50.966;4.842;2023-06-14T08:34:43;7.57;;;4.30;;
9884;SDS011;4981;50.966;4.842;2023-06-14T08:37:10;6.05;;;4.20;;
9884;SDS011;4981;50.966;4.842;2023-06-14T08:39:37;4.00;;;3.63;;
9884;SDS011;4981;50.966;4.842;2023-06-14T08:42:04;5.93;;;4.53;;
9884;SDS011;4981;50.966;4.842;2023-06-14T08:44:33;6.30;;;4.47;;
9884;SDS011;4981;50.966;4.842;2023-06-14T08:47:04;6.03;;;4.28;;
9884;SDS011;4981;50.966;4.842;2023-06-14T08:49:33;5.93;;;4.25;;
9884;SDS011;4981;50.966;4.842;2023-06-14T08:52:01;10.93;;;5.85;;
9884;SDS011;4981;50.966;4.842;2023-06-14T08:54:29;8.43;;;5.50;;
9884;SDS011;4981;50.966;4.842;2023-06-14T08:56:57;7.15;;;4.97;;
9884;SDS011;4981;50.966;4.842;2023-06-14T08:59:24;5.45;;;3.90;;
9884;SDS011;4981;50.966;4.842;2023-06-14T09:01:52;10.15;;;5.38;;
9884;SDS011;4981;50.966;4.842;2023-06-14T09:04:21;11.45;;;5.40;;
9884;SDS011;4981;50.966;4.842;2023-06-14T09:06:49;12.07;;;5.03;;
9884;SDS011;4981;50.966;4.842;2023-06-14T09:09:18;8.85;;;4.13;;
9884;SDS011;4981;50.966;4.842;2023-06-14T09:11:46;7.30;;;4.30;;
9884;SDS011;4981;50.966;4.842;2023-06-14T09:14:13;10.32;;;5.32;;
9884;SDS011;4981;50.966;4.842;2023-06-14T09:16:40;5.45;;;4.82;;
9884;SDS011;4981;50.966;4.842;2023-06-14T09:19:11;10.57;;;4.68;;
9884;SDS011;4981;50.966;4.842;2023-06-14T09:21:50;6.43;;;3.63;;
9884;SDS011;4981;50.966;4.842;2023-06-14T09:24:18;4.32;;;3.85;;
9884;SDS011;4981;50.966;4.842;2023-06-14T09:26:46;8.40;;;4.75;;
9884;SDS011;4981;50.966;4.842;2023-06-14T09:29:15;5.25;;;3.85;;
9884;SDS011;4981;50.966;4.842;2023-06-14T09:31:43;9.85;;;4.60;;
9884;SDS011;4981;50.966;4.842;2023-06-14T09:34:15;7.70;;;3.38;;
9884;SDS011;4981;50.966;4.842;2023-06-14T09:36:44;10.00;;;4.22;;
9884;SDS011;4981;50.966;4.842;2023-06-14T09:39:16;3.78;;;3.38;;
9884;SDS011;4981;50.966;4.842;2023-06-14T09:41:43;3.85;;;3.50;;
9884;SDS011;4981;50.966;4.842;2023-06-14T09:44:10;7.65;;;4.47;;
9884;SDS011;4981;50.966;4.842;2023-06-14T09:46:40;4.50;;;4.03;;
9884;SDS011;4981;50.966;4.842;2023-06-14T09:49:08;9.05;;;3.70;;
9884;SDS011;4981;50.966;4.842;2023-06-14T09:51:36;7.70;;;3.92;;
9884;SDS011;4981;50.966;4.842;2023-06-14T09:54:08;4.15;;;3.38;;
9884;SDS011;4981;50.966;4.842;2023-06-14T09:56:42;5.30;;;3.80;;
9884;SDS011;4981;50.966;4.842;2023-06-14T09:59:12;4.25;;;3.85;;
9884;SDS011;4981;50.966;4.842;2023-06-14T10:01:42;4.80;;;4.00;;
9884;SDS011;4981;50.966;4.842;2023-06-14T10:04:10;5.65;;;3.58;;
9884;SDS011;4981;50.966;4.842;2023-06-14T10:06:40;5.40;;;3.63;;
9884;SDS011;4981;50.966;4.842;2023-06-14T10:09:10;5.65;;;3.38;;
9884;SDS011;4981;50.966;4.842;2023-06-14T10:11:39;4.65;;;3.53;;
9884;SDS011;4981;50.966;4.842;2023-06-14T10:14:09;3.75;;;3.40;;
9884;SDS011;4981;50.966;4.842;2023-06-14T10:16:39;4.22;;;3.67;;
9884;SDS011;4981;50.966;4.842;2023-06-14T10:19:13;3.63;;;3.33;;
9884;SDS011;4981;50.966;4.842;2023-06-14T10:21:46;4.40;;;3.50;;
9884;SDS011;4981;50.966;4.842;2023-06-14T10:24:24;3.92;;;3.58;;
9884;SDS011;4981;50.966;4.842;2023-06-14T10:26:58;6.18;;;3.03;;
9884;SDS011;4981;50.966;4.842;2023-06-14T10:29:26;7.22;;;3.70;;
9884;SDS011;4981;50.966;4.842;2023-06-14T10:31:57;6.72;;;3.28;;
9884;SDS011;4981;50.966;4.842;2023-06-14T10:34:25;3.10;;;2.80;;
9884;SDS011;4981;50.966;4.842;2023-06-14T10:37:03;4.20;;;3.05;;
9884;SDS011;4981;50.966;4.842;2023-06-14T10:39:32;4.95;;;2.92;;
9884;SDS011;4981;50.966;4.842;2023-06-14T10:42:06;3.60;;;3.00;;
9884;SDS011;4981;50.966;4.842;2023-06-14T10:44:34;4.70;;;3.15;;
9884;SDS011;4981;50.966;4.842;2023-06-14T10:47:06;5.97;;;2.95;;
9884;SDS011;4981;50.966;4.842;2023-06-14T10:49:36;3.35;;;2.80;;
9884;SDS011;4981;50.966;4.842;2023-06-14T10:52:10;4.32;;;3.30;;
9884;SDS011;4981;50.966;4.842;2023-06-14T10:54:55;3.88;;;2.67;;
9884;SDS011;4981;50.966;4.842;2023-06-14T10:57:36;6.68;;;2.70;;
9884;SDS011;4981;50.966;4.842;2023-06-14T11:00:06;4.50;;;2.75;;
9884;SDS011;4981;50.966;4.842;2023-06-14T11:05:53;7.63;;;3.13;;
9884;SDS011;4981;50.966;4.842;2023-06-14T11:08:26;3.80;;;3.30;;
9884;SDS011;4981;50.966;4.842;2023-06-14T11:11:06;5.22;;;3.13;;
9884;SDS011;4981;50.966;4.842;2023-06-14T11:13:37;3.83;;;2.67;;
9884;SDS011;4981;50.966;4.842;2023-06-14T11:16:10;7.45;;;2.92;;
9884;SDS011;4981;50.966;4.842;2023-06-14T11:18:38;3.13;;;2.83;;
9884;SDS011;4981;50.966;4.842;2023-06-14T11:21:05;2.88;;;2.58;;
9884;SDS011;4981;50.966;4.842;2023-06-14T11:23:33;4.82;;;2.85;;
9884;SDS011;4981;50.966;4.842;2023-06-14T11:26:00;4.18;;;2.40;;
9884;SDS011;4981;50.966;4.842;2023-06-14T11:28:37;4.82;;;2.85;;
9884;SDS011;4981;50.966;4.842;2023-06-14T11:31:05;28.15;;;3.53;;
9884;SDS011;4981;50.966;4.842;2023-06-14T11:33:33;3.58;;;2.83;;
9884;SDS011;4981;50.966;4.842;2023-06-14T11:36:01;2.85;;;2.47;;
9884;SDS011;4981;50.966;4.842;2023-06-14T11:38:29;3.47;;;2.75;;
9884;SDS011;4981;50.966;4.842;2023-06-14T11:41:00;3.25;;;2.60;;
9884;SDS011;4981;50.966;4.842;2023-06-14T11:43:27;4.20;;;2.53;;
9884;SDS011;4981;50.966;4.842;2023-06-14T11:45:58;3.05;;;2.70;;
9884;SDS011;4981;50.966;4.842;2023-06-14T11:48:35;3.42;;;2.70;;
9884;SDS011;4981;50.966;4.842;2023-06-14T11:51:02;2.55;;;2.35;;
9884;SDS011;4981;50.966;4.842;2023-06-14T11:53:30;3.03;;;2.50;;
9884;SDS011;4981;50.966;4.842;2023-06-14T11:55:57;3.75;;;2.30;;
9884;SDS011;4981;50.966;4.842;2023-06-14T11:58:25;2.50;;;2.30;;
9884;SDS011;4981;50.966;4.842;2023-06-14T12:00:52;4.10;;;2.70;;
9884;SDS011;4981;50.966;4.842;2023-06-14T12:03:23;4.05;;;2.63;;
9884;SDS011;4981;50.966;4.842;2023-06-14T12:06:01;3.97;;;2.45;;
9884;SDS011;4981;50.966;4.842;2023-06-14T12:08:33;4.50;;;2.38;;
9884;SDS011;4981;50.966;4.842;2023-06-14T12:11:04;4.45;;;2.47;;
9884;SDS011;4981;50.966;4.842;2023-06-14T12:13:33;3.03;;;2.03;;
9884;SDS011;4981;50.966;4.842;2023-06-14T12:16:01;5.70;;;2.50;;
9884;SDS011;4981;50.966;4.842;2023-06-14T12:18:34;2.40;;;2.20;;
9884;SDS011;4981;50.966;4.842;2023-06-14T12:21:04;4.28;;;2.00;;
9884;SDS011;4981;50.966;4.842;2023-06-14T12:23:38;2.55;;;2.03;;
9884;SDS011;4981;50.966;4.842;2023-06-14T12:26:09;6.18;;;2.20;;
9884;SDS011;4981;50.966;4.842;2023-06-14T12:28:40;2.60;;;2.30;;
9884;SDS011;4981;50.966;4.842;2023-06-14T12:31:08;4.68;;;1.95;;
9884;SDS011;4981;50.966;4.842;2023-06-14T12:33:38;4.90;;;2.17;;
9884;SDS011;4981;50.966;4.842;2023-06-14T12:36:06;2.40;;;2.20;;
9884;SDS011;4981;50.966;4.842;2023-06-14T12:38:36;4.82;;;1.92;;
9884;SDS011;4981;50.966;4.842;2023-06-14T12:41:03;2.20;;;1.92;;
9884;SDS011;4981;50.966;4.842;2023-06-14T12:43:31;2.40;;;2.17;;
9884;SDS011;4981;50.966;4.842;2023-06-14T12:45:57;2.22;;;2.03;;
9884;SDS011;4981;50.966;4.842;2023-06-14T12:48:25;3.05;;;1.70;;
9884;SDS011;4981;50.966;4.842;2023-06-14T12:50:54;2.55;;;1.52;;
9884;SDS011;4981;50.966;4.842;2023-06-14T12:53:21;3.72;;;1.80;;
9884;SDS011;4981;50.966;4.842;2023-06-14T12:55:48;2.50;;;1.60;;
9884;SDS011;4981;50.966;4.842;2023-06-14T12:58:15;5.35;;;1.60;;
9884;SDS011;4981;50.966;4.842;2023-06-14T13:00:44;2.95;;;1.85;;
9884;SDS011;4981;50.966;4.842;2023-06-14T13:03:11;4.38;;;1.55;;
9884;SDS011;4981;50.966;4.842;2023-06-14T13:05:39;2.55;;;1.70;;
9884;SDS011;4981;50.966;4.842;2023-06-14T13:08:08;3.20;;;1.65;;
9884;SDS011;4981;50.966;4.842;2023-06-14T13:10:35;2.83;;;1.40;;
9884;SDS011;4981;50.966;4.842;2023-06-14T13:13:02;3.85;;;1.30;;
9884;SDS011;4981;50.966;4.842;2023-06-14T13:15:29;1.80;;;1.30;;
9884;SDS011;4981;50.966;4.842;2023-06-14T13:17:56;2.35;;;1.63;;
9884;SDS011;4981;50.966;4.842;2023-06-14T13:20:23;2.70;;;1.45;;
9884;SDS011;4981;50.966;4.842;2023-06-14T13:22:50;1.95;;;1.50;;
9884;SDS011;4981;50.966;4.842;2023-06-14T13:25:22;3.03;;;1.67;;
9884;SDS011;4981;50.966;4.842;2023-06-14T13:27:49;3.95;;;1.80;;
9884;SDS011;4981;50.966;4.842;2023-06-14T13:30:16;2.83;;;1.42;;
9884;SDS011;4981;50.966;4.842;2023-06-14T13:32:43;1.70;;;1.45;;
9884;SDS011;4981;50.966;4.842;2023-06-14T13:35:10;2.00;;;1.40;;
9884;SDS011;4981;50.966;4.842;2023-06-14T13:37:37;1.98;;;1.50;;
9884;SDS011;4981;50.966;4.842;2023-06-14T13:40:05;3.13;;;1.45;;
9884;SDS011;4981;50.966;4.842;2023-06-14T13:42:34;1.58;;;1.40;;
9884;SDS011;4981;50.966;4.842;2023-06-14T13:45:03;1.70;;;1.40;;
9884;SDS011;4981;50.966;4.842;2023-06-14T13:47:31;3.60;;;1.88;;
9884;SDS011;4981;50.966;4.842;2023-06-14T13:49:58;1.77;;;1.20;;
9884;SDS011;4981;50.966;4.842;2023-06-14T13:52:25;4.22;;;1.38;;
9884;SDS011;4981;50.966;4.842;2023-06-14T13:54:52;3.10;;;1.60;;
9884;SDS011;4981;50.966;4.842;2023-06-14T13:57:19;3.10;;;1.63;;
9884;SDS011;4981;50.966;4.842;2023-06-14T13:59:48;4.13;;;1.50;;
9884;SDS011;4981;50.966;4.842;2023-06-14T14:02:14;3.40;;;1.60;;
9884;SDS011;4981;50.966;4.842;2023-06-14T14:04:41;2.10;;;1.40;;
9884;SDS011;4981;50.966;4.842;2023-06-14T14:07:08;4.75;;;2.03;;
9884;SDS011;4981;50.966;4.842;2023-06-14T14:09:35;2.70;;;1.52;;
9884;SDS011;4981;50.966;4.842;2023-06-14T14:12:04;4.75;;;1.80;;
9884;SDS011;4981;50.966;4.842;2023-06-14T14:14:32;3.20;;;1.60;;
9884;SDS011;4981;50.966;4.842;2023-06-14T14:17:01;1.63;;;1.52;;
9884;SDS011;4981;50.966;4.842;2023-06-14T14:19:30;1.88;;;1.25;;
9884;SDS011;4981;50.966;4.842;2023-06-14T14:21:58;3.60;;;1.30;;
9884;SDS011;4981;50.966;4.842;2023-06-14T14:24:26;3.17;;;1.75;;
9884;SDS011;4981;50.966;4.842;2023-06-14T14:26:53;9.63;;;1.80;;
9884;SDS011;4981;50.966;4.842;2023-06-14T14:29:21;2.00;;;1.20;;
9884;SDS011;4981;50.966;4.842;2023-06-14T14:31:48;2.58;;;1.40;;
9884;SDS011;4981;50.966;4.842;2023-06-14T14:34:16;2.22;;;1.45;;
9884;SDS011;4981;50.966;4.842;2023-06-14T14:36:43;2.13;;;1.73;;
9884;SDS011;4981;50.966;4.842;2023-06-14T14:39:10;1.70;;;1.60;;
9884;SDS011;4981;50.966;4.842;2023-06-14T14:41:38;1.90;;;1.58;;
9884;SDS011;4981;50.966;4.842;2023-06-14T14:44:05;2.15;;;1.33;;
9884;SDS011;4981;50.966;4.842;2023-06-14T14:46:32;0.90;;;0.80;;
9884;SDS011;4981;50.966;4.842;2023-06-14T14:48:59;1.67;;;1.45;;
9884;SDS011;4981;50.966;4.842;2023-06-14T14:51:28;3.00;;;1.50;;
9884;SDS011;4981;50.966;4.842;2023-06-14T14:53:55;2.10;;;1.10;;
9884;SDS011;4981;50.966;4.842;2023-06-14T14:56:22;1.95;;;1.17;;
9884;SDS011;4981;50.966;4.842;2023-06-14T14:58:51;2.45;;;1.02;;
9884;SDS011;4981;50.966;4.842;2023-06-14T15:01:18;1.52;;;1.30;;
9884;SDS011;4981;50.966;4.842;2023-06-14T15:03:45;7.72;;;2.10;;
9884;SDS011;4981;50.966;4.842;2023-06-14T15:06:12;3.60;;;1.40;;
9884;SDS011;4981;50.966;4.842;2023-06-14T15:08:41;1.25;;;1.08;;
9884;SDS011;4981;50.966;4.842;2023-06-14T15:11:11;2.03;;;1.30;;
9884;SDS011;4981;50.966;4.842;2023-06-14T15:13:38;4.70;;;1.60;;
9884;SDS011;4981;50.966;4.842;2023-06-14T15:16:05;3.03;;;1.25;;
9884;SDS011;4981;50.966;4.842;2023-06-14T15:18:33;2.80;;;1.40;;
9884;SDS011;4981;50.966;4.842;2023-06-14T15:21:00;2.65;;;1.50;;
9884;SDS011;4981;50.966;4.842;2023-06-14T15:23:27;1.48;;;1.25;;
9884;SDS011;4981;50.966;4.842;2023-06-14T15:25:55;2.42;;;1.50;;
9884;SDS011;4981;50.966;4.842;2023-06-14T15:28:23;1.40;;;1.13;;
9884;SDS011;4981;50.966;4.842;2023-06-14T15:30:53;2.92;;;1.50;;
9884;SDS011;4981;50.966;4.842;2023-06-14T15:33:22;1.33;;;1.23;;
9884;SDS011;4981;50.966;4.842;2023-06-14T15:35:49;2.08;;;1.42;;
9884;SDS011;4981;50.966;4.842;2023-06-14T15:38:16;4.13;;;1.38;;
9884;SDS011;4981;50.966;4.842;2023-06-14T15:40:43;2.30;;;1.10;;
9884;SDS011;4981;50.966;4.842;2023-06-14T15:43:12;1.77;;;1.08;;
9884;SDS011;4981;50.966;4.842;2023-06-14T15:45:39;3.22;;;1.20;;
9884;SDS011;4981;50.966;4.842;2023-06-14T15:48:08;2.42;;;1.08;;
9884;SDS011;4981;50.966;4.842;2023-06-14T15:50:35;2.72;;;1.30;;
9884;SDS011;4981;50.966;4.842;2023-06-14T15:53:02;1.35;;;1.08;;
9884;SDS011;4981;50.966;4.842;2023-06-14T15:55:29;3.00;;;1.20;;
9884;SDS011;4981;50.966;4.842;2023-06-14T15:57:57;4.18;;;1.10;;
9884;SDS011;4981;50.966;4.842;2023-06-14T16:00:25;4.63;;;1.10;;
9884;SDS011;4981;50.966;4.842;2023-06-14T16:02:52;1.10;;;1.00;;
9884;SDS011;4981;50.966;4.842;2023-06-14T16:05:19;1.85;;;1.30;;
9884;SDS011;4981;50.966;4.842;2023-06-14T16:07:46;3.55;;;1.33;;
9884;SDS011;4981;50.966;4.842;2023-06-14T16:10:14;2.30;;;1.20;;
9884;SDS011;4981;50.966;4.842;2023-06-14T16:12:41;1.20;;;1.10;;
9884;SDS011;4981;50.966;4.842;2023-06-14T16:15:08;1.40;;;0.98;;
9884;SDS011;4981;50.966;4.842;2023-06-14T16:17:37;4.18;;;1.35;;
9884;SDS011;4981;50.966;4.842;2023-06-14T16:20:05;1.35;;;1.02;;
9884;SDS011;4981;50.966;4.842;2023-06-14T16:22:33;1.10;;;1.00;;
9884;SDS011;4981;50.966;4.842;2023-06-14T16:25:00;2.13;;;1.00;;
9884;SDS011;4981;50.966;4.842;2023-06-14T16:27:27;2.03;;;1.33;;
9884;SDS011;4981;50.966;4.842;2023-06-14T16:29:56;1.77;;;1.23;;
9884;SDS011;4981;50.966;4.842;2023-06-14T16:32:23;3.72;;;0.93;;
9884;SDS011;4981;50.966;4.842;2023-06-14T16:34:54;2.10;;;1.15;;
9884;SDS011;4981;50.966;4.842;2023-06-14T16:37:21;1.23;;;1.13;;
9884;SDS011;4981;50.966;4.842;2023-06-14T16:39:48;1.25;;;1.00;;
9884;SDS011;4981;50.966;4.842;2023-06-14T16:42:15;1.20;;;1.10;;
9884;SDS011;4981;50.966;4.842;2023-06-14T16:44:42;2.80;;;1.08;;
9884;SDS011;4981;50.966;4.842;2023-06-14T16:47:09;1.15;;;1.02;;
9884;SDS011;4981;50.966;4.842;2023-06-14T16:49:37;3.33;;;1.10;;
9884;SDS011;4981;50.966;4.842;2023-06-14T16:52:06;2.35;;;1.10;;
9884;SDS011;4981;50.966;4.842;2023-06-14T16:54:34;1.55;;;1.00;;
9884;SDS011;4981;50.966;4.842;2023-06-14T16:57:01;2.10;;;1.00;;
9884;SDS011;4981;50.966;4.842;2023-06-14T16:59:28;1.85;;;0.90;;
9884;SDS011;4981;50.966;4.842;2023-06-14T17:02:00;1.88;;;0.90;;
9884;SDS011;4981;50.966;4.842;2023-06-14T17:04:28;1.58;;;1.13;;
9884;SDS011;4981;50.966;4.842;2023-06-14T17:06:55;1.25;;;0.98;;
9884;SDS011;4981;50.966;4.842;2023-06-14T17:09:24;0.75;;;0.75;;
9884;SDS011;4981;50.966;4.842;2023-06-14T17:11:51;1.73;;;1.02;;
9884;SDS011;4981;50.966;4.842;2023-06-14T17:14:18;1.70;;;1.02;;
9884;SDS011;4981;50.966;4.842;2023-06-14T17:16:45;4.10;;;1.20;;
9884;SDS011;4981;50.966;4.842;2023-06-14T17:19:12;1.75;;;0.88;;
9884;SDS011;4981;50.966;4.842;2023-06-14T17:21:39;1.40;;;0.98;;
9884;SDS011;4981;50.966;4.842;2023-06-14T17:24:08;0.70;;;0.70;;
9884;SDS011;4981;50.966;4.842;2023-06-14T17:26:36;1.17;;;0.80;;
9884;SDS011;4981;50.966;4.842;2023-06-14T17:29:03;2.50;;;0.77;;
9884;SDS011;4981;50.966;4.842;2023-06-14T17:31:32;0.95;;;0.82;;